Milford, MA (01757)

05:43 AM EST die 23o November, anno 2014 (GMT -0500)
Congress St | Change Station
CLOSE
Current Station
Personal Weather Stations
Location: Milford, MA
Elevation: 394 ft
Nearby Weather Stations

Elev 394 ft 42.15 °N, 71.53 °W | Updated 9 seconds ago

Plerumque Nubila
Plerumque Nubila
42.2 °F
Feels Like 40 °F
N
3.4
Ventus Variabilis Ventus from Inter Austrum et Zephyrum
Gusts 5.8 mph

Hodie
High -- | Low -- °F
--% Chance of Precip.
Yesterday
High -- | Low -- °F
Precip. -- in
6:45 AM 4:18 PM
New, 1% visible
Pressio 30.10 in
Visibilitas 10.0 milia passuum
Clouds Aequaliter Nubila 5000 ft
Frigus Venti 40 °F
Frigus in quo Ros apparet 32 °F
Umor 66%
Rainfall 0.00 in
Snow Depth Not available.
UV 0.0 out of 12
Pollen .10 out of 12
Air Quality Not available.
Flu Activity Not available.
METAR KSFZ 231035Z 21006KT 10SM OVC050 06/M07 A3010 RMK AO1

More Conditions Fewer Conditions

Pressio 30.10 in
Visibilitas 10.0 milia passuum
Clouds Aequaliter Nubila 5000 ft
Frigus Venti 40 °F
Frigus in quo Ros apparet 32 °F
Umor 66%
Rainfall 0.00 in
Snow Depth Not available.
UV 0.0 out of 12
Pollen .10 out of 12
Air Quality Not available.
Flu Activity Not available.
METAR KSFZ 231035Z 21006KT 10SM OVC050 06/M07 A3010 RMK AO1

More Conditions Fewer Conditions

10-Day Weather Forecast

Almanac

Astronomy

Nov. 23, 2014 Rise Set
Actual Time
Civil Twilight
Nautical Twilight
Astronomical Twilight
Moon
Length Of Visible Light
Length of Day
Tomorrow will be .
, % of the Moon is Illuminated

Today's Extremes

State Highs State Lows

Community

WunderPhotos

Upload Photos

1,773,033 photos uploaded!

WunderBlogs® & News

Nearby

Air Quality

  Air Quality AQ Index Pollutant
Not available.

Snow Depth

Station Depth Elevation

Earthquake Activity

City Distance Mag. Time & Date
Minimum magnitude displayed is 2.5.

Coastal Water Temperatures

Locus Calor

Nearby Weather Stations